sensor_id;sensor_type;location;lat;lon;timestamp;pressure;altitude;pressure_sealevel;temperature;humidity
9059;BME280;4564;42.034;25.834;2024-03-25T00:00:31;98650.09;;;8.75;100.00
9059;BME280;4564;42.034;25.834;2024-03-25T00:02:57;98646.97;;;8.78;100.00
9059;BME280;4564;42.034;25.834;2024-03-25T00:05:23;98649.19;;;8.88;100.00
9059;BME280;4564;42.034;25.834;2024-03-25T00:07:50;98648.91;;;8.96;100.00
9059;BME280;4564;42.034;25.834;2024-03-25T00:10:17;98636.38;;;8.70;100.00
9059;BME280;4564;42.034;25.834;2024-03-25T00:12:45;98628.59;;;8.49;100.00
9059;BME280;4564;42.034;25.834;2024-03-25T00:15:13;98615.28;;;8.48;100.00
9059;BME280;4564;42.034;25.834;2024-03-25T00:17:39;98610.34;;;8.38;100.00
9059;BME280;4564;42.034;25.834;2024-03-25T00:20:06;98593.34;;;8.24;100.00
9059;BME280;4564;42.034;25.834;2024-03-25T00:22:34;98581.88;;;8.29;100.00
9059;BME280;4564;42.034;25.834;2024-03-25T00:25:01;98583.34;;;8.31;100.00
9059;BME280;4564;42.034;25.834;2024-03-25T00:27:27;98574.81;;;8.34;100.00
9059;BME280;4564;42.034;25.834;2024-03-25T00:29:54;98574.81;;;8.34;100.00
9059;BME280;4564;42.034;25.834;2024-03-25T00:32:21;98588.72;;;8.38;100.00
9059;BME280;4564;42.034;25.834;2024-03-25T00:34:48;98592.88;;;8.40;100.00
9059;BME280;4564;42.034;25.834;2024-03-25T00:37:13;98602.50;;;8.30;100.00
9059;BME280;4564;42.034;25.834;2024-03-25T00:39:40;98593.34;;;8.24;100.00
9059;BME280;4564;42.034;25.834;2024-03-25T00:42:06;98594.00;;;8.13;100.00
9059;BME280;4564;42.034;25.834;2024-03-25T00:44:32;98595.47;;;8.09;100.00
9059;BME280;4564;42.034;25.834;2024-03-25T00:46:58;98593.16;;;8.13;100.00
9059;BME280;4564;42.034;25.834;2024-03-25T00:49:26;98577.13;;;8.18;100.00
9059;BME280;4564;42.034;25.834;2024-03-25T00:51:52;98570.50;;;8.14;100.00
9059;BME280;4564;42.034;25.834;2024-03-25T00:54:18;98558.88;;;8.13;100.00
9059;BME280;4564;42.034;25.834;2024-03-25T00:56:44;98552.38;;;8.21;100.00
9059;BME280;4564;42.034;25.834;2024-03-25T00:59:11;98545.09;;;8.28;100.00
9059;BME280;4564;42.034;25.834;2024-03-25T01:01:37;98554.63;;;8.37;100.00
9059;BME280;4564;42.034;25.834;2024-03-25T01:04:03;98541.91;;;8.44;100.00
9059;BME280;4564;42.034;25.834;2024-03-25T01:06:30;98546.00;;;8.53;100.00
9059;BME280;4564;42.034;25.834;2024-03-25T01:08:57;98545.75;;;8.61;100.00
9059;BME280;4564;42.034;25.834;2024-03-25T01:11:23;98537.81;;;8.66;100.00
9059;BME280;4564;42.034;25.834;2024-03-25T01:13:49;98541.22;;;8.87;100.00
9059;BME280;4564;42.034;25.834;2024-03-25T01:16:15;98534.78;;;8.81;100.00
9059;BME280;4564;42.034;25.834;2024-03-25T01:18:41;98532.50;;;8.84;100.00
9059;BME280;4564;42.034;25.834;2024-03-25T01:21:07;98526.75;;;8.74;100.00
9059;BME280;4564;42.034;25.834;2024-03-25T01:23:35;98512.94;;;8.82;100.00
9059;BME280;4564;42.034;25.834;2024-03-25T01:26:01;98500.22;;;8.90;100.00
9059;BME280;4564;42.034;25.834;2024-03-25T01:28:27;98506.00;;;8.93;100.00
9059;BME280;4564;42.034;25.834;2024-03-25T01:30:53;98507.59;;;9.01;100.00
9059;BME280;4564;42.034;25.834;2024-03-25T01:33:20;98516.56;;;9.01;100.00
9059;BME280;4564;42.034;25.834;2024-03-25T01:35:45;98503.97;;;8.89;100.00
9059;BME280;4564;42.034;25.834;2024-03-25T01:38:12;98502.91;;;8.90;100.00
9059;BME280;4564;42.034;25.834;2024-03-25T01:40:39;98504.78;;;8.89;100.00
9059;BME280;4564;42.034;25.834;2024-03-25T01:43:06;98507.72;;;8.88;100.00
9059;BME280;4564;42.034;25.834;2024-03-25T01:45:32;98514.28;;;8.73;100.00
9059;BME280;4564;42.034;25.834;2024-03-25T01:48:00;98511.22;;;8.63;100.00
9059;BME280;4564;42.034;25.834;2024-03-25T01:50:27;98510.69;;;8.48;100.00
9059;BME280;4564;42.034;25.834;2024-03-25T01:52:54;98506.09;;;8.49;100.00
9059;BME280;4564;42.034;25.834;2024-03-25T01:55:21;98511.31;;;8.50;100.00
9059;BME280;4564;42.034;25.834;2024-03-25T01:57:52;98514.19;;;8.55;100.00
9059;BME280;4564;42.034;25.834;2024-03-25T02:00:17;98516.63;;;8.63;100.00
9059;BME280;4564;42.034;25.834;2024-03-25T02:02:44;98523.56;;;8.53;100.00
9059;BME280;4564;42.034;25.834;2024-03-25T02:05:11;98528.03;;;8.65;100.00
9059;BME280;4564;42.034;25.834;2024-03-25T02:07:38;98516.97;;;8.73;100.00
9059;BME280;4564;42.034;25.834;2024-03-25T02:10:04;98515.31;;;8.72;100.00
9059;BME280;4564;42.034;25.834;2024-03-25T02:12:31;98502.00;;;8.71;100.00
9059;BME280;4564;42.034;25.834;2024-03-25T02:14:58;98483.28;;;8.69;100.00
9059;BME280;4564;42.034;25.834;2024-03-25T02:17:25;98476.84;;;8.70;100.00
9059;BME280;4564;42.034;25.834;2024-03-25T02:19:50;98472.47;;;8.69;100.00
9059;BME280;4564;42.034;25.834;2024-03-25T02:22:17;98480.41;;;8.64;100.00
9059;BME280;4564;42.034;25.834;2024-03-25T02:24:43;98449.97;;;8.75;100.00
9059;BME280;4564;42.034;25.834;2024-03-25T02:27:12;98467.06;;;8.69;100.00
9059;BME280;4564;42.034;25.834;2024-03-25T02:29:39;98516.72;;;8.50;100.00
9059;BME280;4564;42.034;25.834;2024-03-25T02:32:06;98515.06;;;8.49;100.00
9059;BME280;4564;42.034;25.834;2024-03-25T02:34:35;98516.22;;;8.60;100.00
9059;BME280;4564;42.034;25.834;2024-03-25T02:37:02;98520.09;;;8.70;100.00
9059;BME280;4564;42.034;25.834;2024-03-25T02:39:28;98516.53;;;8.76;100.00
9059;BME280;4564;42.034;25.834;2024-03-25T02:41:55;98509.41;;;8.82;100.00
9059;BME280;4564;42.034;25.834;2024-03-25T02:44:23;98531.88;;;8.82;100.00
9059;BME280;4564;42.034;25.834;2024-03-25T02:46:49;98524.31;;;8.91;100.00
9059;BME280;4564;42.034;25.834;2024-03-25T02:49:15;98539.13;;;8.89;100.00
9059;BME280;4564;42.034;25.834;2024-03-25T02:51:41;98535.53;;;8.95;100.00
9059;BME280;4564;42.034;25.834;2024-03-25T02:54:07;98527.25;;;8.90;100.00
9059;BME280;4564;42.034;25.834;2024-03-25T02:56:34;98520.34;;;8.94;100.00
9059;BME280;4564;42.034;25.834;2024-03-25T02:58:59;98521.13;;;9.01;100.00
9059;BME280;4564;42.034;25.834;2024-03-25T03:01:27;98525.25;;;9.03;100.00
9059;BME280;4564;42.034;25.834;2024-03-25T03:03:53;98527.72;;;9.11;100.00
9059;BME280;4564;42.034;25.834;2024-03-25T03:06:20;98524.50;;;9.21;100.00
9059;BME280;4564;42.034;25.834;2024-03-25T03:08:46;98514.94;;;9.18;100.00
9059;BME280;4564;42.034;25.834;2024-03-25T03:11:12;98533.22;;;9.23;100.00
9059;BME280;4564;42.034;25.834;2024-03-25T03:13:38;98567.50;;;9.29;100.00
9059;BME280;4564;42.034;25.834;2024-03-25T03:16:05;98588.72;;;9.32;100.00
9059;BME280;4564;42.034;25.834;2024-03-25T03:18:32;98592.94;;;9.28;100.00
9059;BME280;4564;42.034;25.834;2024-03-25T03:20:58;98593.53;;;9.30;100.00
9059;BME280;4564;42.034;25.834;2024-03-25T03:23:24;98598.00;;;9.43;100.00
9059;BME280;4564;42.034;25.834;2024-03-25T03:25:50;98599.16;;;9.28;100.00
9059;BME280;4564;42.034;25.834;2024-03-25T03:28:17;98606.47;;;9.28;100.00
9059;BME280;4564;42.034;25.834;2024-03-25T03:30:43;98610.63;;;9.24;100.00
9059;BME280;4564;42.034;25.834;2024-03-25T03:33:09;98621.28;;;9.19;100.00
9059;BME280;4564;42.034;25.834;2024-03-25T03:35:37;98622.75;;;9.21;100.00
9059;BME280;4564;42.034;25.834;2024-03-25T03:38:03;98646.44;;;9.26;100.00
9059;BME280;4564;42.034;25.834;2024-03-25T03:40:31;98658.47;;;9.30;100.00
9059;BME280;4564;42.034;25.834;2024-03-25T03:42:57;98657.00;;;9.34;100.00
9059;BME280;4564;42.034;25.834;2024-03-25T03:45:24;98656.13;;;9.40;100.00
9059;BME280;4564;42.034;25.834;2024-03-25T03:47:50;98672.94;;;9.49;100.00
9059;BME280;4564;42.034;25.834;2024-03-25T03:50:16;98672.88;;;9.55;100.00
9059;BME280;4564;42.034;25.834;2024-03-25T03:52:43;98694.47;;;9.62;100.00
9059;BME280;4564;42.034;25.834;2024-03-25T03:55:10;98697.75;;;9.71;100.00
9059;BME280;4564;42.034;25.834;2024-03-25T03:57:35;98703.09;;;9.77;100.00
9059;BME280;4564;42.034;25.834;2024-03-25T04:00:02;98703.50;;;9.81;100.00
9059;BME280;4564;42.034;25.834;2024-03-25T04:02:29;98707.22;;;9.86;100.00
9059;BME280;4564;42.034;25.834;2024-03-25T04:04:56;98717.38;;;9.91;100.00
9059;BME280;4564;42.034;25.834;2024-03-25T04:07:22;98704.34;;;9.99;100.00
9059;BME280;4564;42.034;25.834;2024-03-25T04:09:53;98715.13;;;9.88;100.00
9059;BME280;4564;42.034;25.834;2024-03-25T04:12:18;98723.56;;;9.73;100.00
9059;BME280;4564;42.034;25.834;2024-03-25T04:14:46;98733.22;;;9.62;100.00
9059;BME280;4564;42.034;25.834;2024-03-25T04:17:12;98744.25;;;9.36;100.00
9059;BME280;4564;42.034;25.834;2024-03-25T04:19:38;98752.81;;;9.33;100.00
9059;BME280;4564;42.034;25.834;2024-03-25T04:22:04;98759.94;;;9.21;100.00
9059;BME280;4564;42.034;25.834;2024-03-25T04:24:32;98772.28;;;9.10;100.00
9059;BME280;4564;42.034;25.834;2024-03-25T04:27:01;98768.13;;;9.08;100.00
9059;BME280;4564;42.034;25.834;2024-03-25T04:29:27;98759.41;;;9.06;100.00
9059;BME280;4564;42.034;25.834;2024-03-25T04:31:54;98755.44;;;9.02;100.00
9059;BME280;4564;42.034;25.834;2024-03-25T04:34:21;98761.47;;;9.04;100.00
9059;BME280;4564;42.034;25.834;2024-03-25T04:36:48;98757.28;;;9.08;100.00
9059;BME280;4564;42.034;25.834;2024-03-25T04:39:15;98750.44;;;9.12;100.00
9059;BME280;4564;42.034;25.834;2024-03-25T04:41:40;98753.91;;;9.19;100.00
9059;BME280;4564;42.034;25.834;2024-03-25T04:44:07;98766.84;;;9.17;100.00
9059;BME280;4564;42.034;25.834;2024-03-25T04:46:33;98770.38;;;9.17;100.00
9059;BME280;4564;42.034;25.834;2024-03-25T04:48:59;98763.88;;;9.25;100.00
9059;BME280;4564;42.034;25.834;2024-03-25T04:51:24;98782.41;;;9.28;100.00
9059;BME280;4564;42.034;25.834;2024-03-25T04:53:50;98791.72;;;9.39;100.00
9059;BME280;4564;42.034;25.834;2024-03-25T04:56:16;98803.31;;;9.46;100.00
9059;BME280;4564;42.034;25.834;2024-03-25T04:58:42;98806.69;;;9.41;100.00
9059;BME280;4564;42.034;25.834;2024-03-25T05:01:09;98818.81;;;9.32;100.00
9059;BME280;4564;42.034;25.834;2024-03-25T05:03:34;98823.41;;;9.25;100.00
9059;BME280;4564;42.034;25.834;2024-03-25T05:06:00;98844.69;;;9.15;100.00
9059;BME280;4564;42.034;25.834;2024-03-25T05:08:25;98845.16;;;8.99;100.00
9059;BME280;4564;42.034;25.834;2024-03-25T05:10:51;98840.59;;;8.93;100.00
9059;BME280;4564;42.034;25.834;2024-03-25T05:13:17;98847.25;;;8.97;100.00
9059;BME280;4564;42.034;25.834;2024-03-25T05:15:49;98845.63;;;8.89;100.00
9059;BME280;4564;42.034;25.834;2024-03-25T05:18:16;98857.69;;;8.87;100.00
9059;BME280;4564;42.034;25.834;2024-03-25T05:20:41;98867.50;;;8.74;100.00
9059;BME280;4564;42.034;25.834;2024-03-25T05:23:07;98858.31;;;8.75;100.00
9059;BME280;4564;42.034;25.834;2024-03-25T05:25:32;98865.41;;;8.70;100.00
9059;BME280;4564;42.034;25.834;2024-03-25T05:27:58;98861.66;;;8.77;100.00
9059;BME280;4564;42.034;25.834;2024-03-25T05:30:23;98854.59;;;8.76;100.00
9059;BME280;4564;42.034;25.834;2024-03-25T05:32:49;98854.97;;;8.87;100.00
9059;BME280;4564;42.034;25.834;2024-03-25T05:35:16;98842.28;;;8.94;100.00
9059;BME280;4564;42.034;25.834;2024-03-25T05:37:42;98856.00;;;8.99;100.00
9059;BME280;4564;42.034;25.834;2024-03-25T05:40:08;98848.88;;;9.11;100.00
9059;BME280;4564;42.034;25.834;2024-03-25T05:42:34;98843.44;;;9.17;100.00
9059;BME280;4564;42.034;25.834;2024-03-25T05:44:59;98842.19;;;9.20;100.00
9059;BME280;4564;42.034;25.834;2024-03-25T05:47:25;98856.69;;;9.39;100.00
9059;BME280;4564;42.034;25.834;2024-03-25T05:49:50;98845.81;;;9.45;100.00
9059;BME280;4564;42.034;25.834;2024-03-25T05:52:17;98851.38;;;9.57;100.00
9059;BME280;4564;42.034;25.834;2024-03-25T05:54:43;98850.72;;;9.61;100.00
9059;BME280;4564;42.034;25.834;2024-03-25T05:57:09;98848.19;;;9.66;100.00
9059;BME280;4564;42.034;25.834;2024-03-25T05:59:34;98839.19;;;9.73;100.00
9059;BME280;4564;42.034;25.834;2024-03-25T06:02:00;98839.06;;;9.61;100.00
9059;BME280;4564;42.034;25.834;2024-03-25T06:04:26;98849.84;;;9.67;100.00
9059;BME280;4564;42.034;25.834;2024-03-25T06:06:51;98846.63;;;9.84;100.00
9059;BME280;4564;42.034;25.834;2024-03-25T06:09:18;98856.00;;;9.88;100.00
9059;BME280;4564;42.034;25.834;2024-03-25T06:11:44;98864.59;;;10.09;100.00
9059;BME280;4564;42.034;25.834;2024-03-25T06:14:09;98875.16;;;10.24;100.00
9059;BME280;4564;42.034;25.834;2024-03-25T06:16:35;98875.16;;;10.49;100.00
9059;BME280;4564;42.034;25.834;2024-03-25T06:19:00;98884.63;;;10.65;100.00
9059;BME280;4564;42.034;25.834;2024-03-25T06:21:26;98905.72;;;10.87;100.00
9059;BME280;4564;42.034;25.834;2024-03-25T06:23:52;98898.25;;;10.83;100.00
9059;BME280;4564;42.034;25.834;2024-03-25T06:26:19;98896.72;;;11.12;100.00
9059;BME280;4564;42.034;25.834;2024-03-25T06:28:45;98891.28;;;11.48;100.00
9059;BME280;4564;42.034;25.834;2024-03-25T06:31:11;98888.75;;;11.83;99.32
9059;BME280;4564;42.034;25.834;2024-03-25T06:33:55;98897.72;;;13.01;97.33
9059;BME280;4564;42.034;25.834;2024-03-25T06:36:39;98896.31;;;13.85;87.81
9059;BME280;4564;42.034;25.834;2024-03-25T06:39:04;98897.66;;;14.00;87.05
9059;BME280;4564;42.034;25.834;2024-03-25T06:41:31;98903.66;;;13.85;83.53
9059;BME280;4564;42.034;25.834;2024-03-25T06:43:57;98905.81;;;13.20;87.00
9059;BME280;4564;42.034;25.834;2024-03-25T06:46:23;98917.00;;;12.65;85.77
9059;BME280;4564;42.034;25.834;2024-03-25T06:48:48;98909.41;;;12.02;89.89
9059;BME280;4564;42.034;25.834;2024-03-25T06:51:14;98926.78;;;11.83;92.84
9059;BME280;4564;42.034;25.834;2024-03-25T06:53:40;98924.22;;;11.70;91.38
9059;BME280;4564;42.034;25.834;2024-03-25T06:56:05;98924.38;;;11.57;91.11
9059;BME280;4564;42.034;25.834;2024-03-25T06:58:32;98922.50;;;11.21;92.13
9059;BME280;4564;42.034;25.834;2024-03-25T07:01:03;98920.84;;;11.38;92.76
9059;BME280;4564;42.034;25.834;2024-03-25T07:03:29;98914.72;;;11.24;92.06
9059;BME280;4564;42.034;25.834;2024-03-25T07:05:55;98917.34;;;11.13;93.05
9059;BME280;4564;42.034;25.834;2024-03-25T07:08:20;98922.13;;;11.17;94.05
9059;BME280;4564;42.034;25.834;2024-03-25T07:10:46;98931.94;;;11.36;93.78
9059;BME280;4564;42.034;25.834;2024-03-25T07:13:12;98943.03;;;11.53;91.89
9059;BME280;4564;42.034;25.834;2024-03-25T07:15:39;98939.63;;;11.58;91.21
9059;BME280;4564;42.034;25.834;2024-03-25T07:18:05;98944.44;;;11.56;91.46
9059;BME280;4564;42.034;25.834;2024-03-25T07:20:30;98942.81;;;11.55;90.89
9059;BME280;4564;42.034;25.834;2024-03-25T07:22:56;98954.56;;;11.67;90.61
9059;BME280;4564;42.034;25.834;2024-03-25T07:25:22;98953.97;;;11.83;89.29
9059;BME280;4564;42.034;25.834;2024-03-25T07:27:49;98951.56;;;12.23;88.90
9059;BME280;4564;42.034;25.834;2024-03-25T07:30:15;98960.56;;;12.65;85.09
9059;BME280;4564;42.034;25.834;2024-03-25T07:32:42;98962.41;;;12.94;84.53
9059;BME280;4564;42.034;25.834;2024-03-25T07:35:08;98960.28;;;13.43;84.10
9059;BME280;4564;42.034;25.834;2024-03-25T07:37:33;98953.88;;;13.49;81.04
9059;BME280;4564;42.034;25.834;2024-03-25T07:39:59;98961.44;;;13.70;81.56
9059;BME280;4564;42.034;25.834;2024-03-25T07:42:24;98969.19;;;14.30;80.49
9059;BME280;4564;42.034;25.834;2024-03-25T07:44:50;98962.72;;;14.48;76.76
9059;BME280;4564;42.034;25.834;2024-03-25T07:47:16;98961.56;;;14.32;75.53
9059;BME280;4564;42.034;25.834;2024-03-25T07:49:43;98972.97;;;14.01;77.71
9059;BME280;4564;42.034;25.834;2024-03-25T07:52:08;98970.63;;;13.93;76.25
9059;BME280;4564;42.034;25.834;2024-03-25T07:54:34;98982.97;;;13.83;77.04
9059;BME280;4564;42.034;25.834;2024-03-25T07:57:00;98978.94;;;13.86;77.86
9059;BME280;4564;42.034;25.834;2024-03-25T07:59:25;98980.09;;;14.02;75.41
9059;BME280;4564;42.034;25.834;2024-03-25T08:01:51;98976.00;;;14.16;76.64
9059;BME280;4564;42.034;25.834;2024-03-25T08:04:16;98974.97;;;14.45;76.04
9059;BME280;4564;42.034;25.834;2024-03-25T08:06:44;98981.13;;;14.86;73.66
9059;BME280;4564;42.034;25.834;2024-03-25T08:09:09;98978.66;;;15.18;73.93
9059;BME280;4564;42.034;25.834;2024-03-25T08:11:35;98986.94;;;15.23;71.43
9059;BME280;4564;42.034;25.834;2024-03-25T08:14:00;98989.56;;;15.68;68.41
9059;BME280;4564;42.034;25.834;2024-03-25T08:16:26;98988.25;;;15.70;68.73
9059;BME280;4564;42.034;25.834;2024-03-25T08:18:52;98989.09;;;15.54;66.75
9059;BME280;4564;42.034;25.834;2024-03-25T08:21:17;98983.41;;;15.22;66.83
9059;BME280;4564;42.034;25.834;2024-03-25T08:23:45;98982.69;;;14.65;69.69
9059;BME280;4564;42.034;25.834;2024-03-25T08:26:11;98982.84;;;14.30;72.74
9059;BME280;4564;42.034;25.834;2024-03-25T08:28:37;98988.06;;;14.20;71.60
9059;BME280;4564;42.034;25.834;2024-03-25T08:31:03;98992.78;;;13.96;71.43
9059;BME280;4564;42.034;25.834;2024-03-25T08:33:28;98989.19;;;13.56;71.75
9059;BME280;4564;42.034;25.834;2024-03-25T08:35:54;98990.97;;;13.50;71.44
9059;BME280;4564;42.034;25.834;2024-03-25T08:38:19;98996.78;;;13.42;72.19
9059;BME280;4564;42.034;25.834;2024-03-25T08:40:46;98998.78;;;13.58;74.33
9059;BME280;4564;42.034;25.834;2024-03-25T08:43:12;99005.84;;;13.82;72.35
9059;BME280;4564;42.034;25.834;2024-03-25T08:45:38;99001.78;;;14.08;73.71
9059;BME280;4564;42.034;25.834;2024-03-25T08:48:04;98997.63;;;14.46;73.65
9059;BME280;4564;42.034;25.834;2024-03-25T08:50:29;98993.56;;;14.77;71.61
9059;BME280;4564;42.034;25.834;2024-03-25T08:52:55;98995.72;;;15.08;68.03
9059;BME280;4564;42.034;25.834;2024-03-25T08:55:21;98997.38;;;15.42;67.29
9059;BME280;4564;42.034;25.834;2024-03-25T08:57:48;98998.69;;;15.57;65.13
9059;BME280;4564;42.034;25.834;2024-03-25T09:00:14;98998.97;;;15.38;63.11
9059;BME280;4564;42.034;25.834;2024-03-25T09:02:39;99003.84;;;15.53;65.56
9059;BME280;4564;42.034;25.834;2024-03-25T09:05:05;99003.53;;;15.71;61.47
9059;BME280;4564;42.034;25.834;2024-03-25T09:07:32;99014.50;;;15.71;61.83
9059;BME280;4564;42.034;25.834;2024-03-25T09:09:57;99013.53;;;15.82;62.97
9059;BME280;4564;42.034;25.834;2024-03-25T09:12:41;99013.13;;;15.52;62.71
9059;BME280;4564;42.034;25.834;2024-03-25T09:15:08;99011.72;;;15.88;64.40
9059;BME280;4564;42.034;25.834;2024-03-25T09:17:34;99026.66;;;15.80;59.77
9059;BME280;4564;42.034;25.834;2024-03-25T09:20:00;99022.94;;;15.86;58.89
9059;BME280;4564;42.034;25.834;2024-03-25T09:22:26;99016.34;;;15.87;58.79
9059;BME280;4564;42.034;25.834;2024-03-25T09:24:51;99013.78;;;15.59;57.65
9059;BME280;4564;42.034;25.834;2024-03-25T09:27:17;99020.25;;;15.20;58.29
9059;BME280;4564;42.034;25.834;2024-03-25T09:29:43;99018.41;;;15.25;58.67
9059;BME280;4564;42.034;25.834;2024-03-25T09:32:10;99005.41;;;15.32;58.79
9059;BME280;4564;42.034;25.834;2024-03-25T09:34:35;99009.81;;;15.17;59.86
9059;BME280;4564;42.034;25.834;2024-03-25T09:37:01;99011.81;;;15.21;58.67
9059;BME280;4564;42.034;25.834;2024-03-25T09:39:26;99010.75;;;15.44;58.59
9059;BME280;4564;42.034;25.834;2024-03-25T09:41:55;99006.06;;;15.56;56.34
9059;BME280;4564;42.034;25.834;2024-03-25T09:44:21;99003.31;;;15.73;56.77
9059;BME280;4564;42.034;25.834;2024-03-25T09:46:47;99011.28;;;15.96;56.92
9059;BME280;4564;42.034;25.834;2024-03-25T09:49:14;99003.97;;;15.80;55.18
9059;BME280;4564;42.034;25.834;2024-03-25T09:51:40;99001.50;;;15.62;53.54
9059;BME280;4564;42.034;25.834;2024-03-25T09:54:06;98999.91;;;15.66;53.78
9059;BME280;4564;42.034;25.834;2024-03-25T09:56:32;99003.06;;;15.74;53.97
9059;BME280;4564;42.034;25.834;2024-03-25T09:58:58;98992.72;;;15.43;53.25
9059;BME280;4564;42.034;25.834;2024-03-25T10:01:24;98990.69;;;15.17;54.51
9059;BME280;4564;42.034;25.834;2024-03-25T10:03:50;98990.09;;;15.15;54.64
9059;BME280;4564;42.034;25.834;2024-03-25T10:06:17;98994.06;;;15.24;56.11
9059;BME280;4564;42.034;25.834;2024-03-25T10:08:44;98994.88;;;15.41;54.11
9059;BME280;4564;42.034;25.834;2024-03-25T10:11:10;99002.59;;;15.82;53.79
9059;BME280;4564;42.034;25.834;2024-03-25T10:13:36;99008.28;;;15.76;51.56
9059;BME280;4564;42.034;25.834;2024-03-25T10:16:02;99001.63;;;15.72;52.87
9059;BME280;4564;42.034;25.834;2024-03-25T10:18:28;99002.19;;;16.12;49.86
9059;BME280;4564;42.034;25.834;2024-03-25T10:20:53;99007.00;;;16.49;50.28
9059;BME280;4564;42.034;25.834;2024-03-25T10:23:21;99012.16;;;16.45;49.75
9059;BME280;4564;42.034;25.834;2024-03-25T10:25:48;99010.88;;;16.31;49.22
9059;BME280;4564;42.034;25.834;2024-03-25T10:28:14;99010.00;;;16.25;48.14
9059;BME280;4564;42.034;25.834;2024-03-25T10:30:40;99007.91;;;16.32;48.41
9059;BME280;4564;42.034;25.834;2024-03-25T10:33:06;99004.94;;;16.12;49.56
9059;BME280;4564;42.034;25.834;2024-03-25T10:35:32;98999.94;;;16.09;49.22
9059;BME280;4564;42.034;25.834;2024-03-25T10:37:58;99008.66;;;16.28;49.14
9059;BME280;4564;42.034;25.834;2024-03-25T10:40:26;99007.13;;;16.15;49.19
9059;BME280;4564;42.034;25.834;2024-03-25T10:42:54;99003.75;;;16.52;49.10
9059;BME280;4564;42.034;25.834;2024-03-25T10:45:21;99002.88;;;17.00;46.94
9059;BME280;4564;42.034;25.834;2024-03-25T10:47:46;99023.16;;;16.99;45.41
9059;BME280;4564;42.034;25.834;2024-03-25T10:50:12;99027.66;;;16.34;47.33
9059;BME280;4564;42.034;25.834;2024-03-25T10:52:41;99030.16;;;15.76;49.04
9059;BME280;4564;42.034;25.834;2024-03-25T10:55:07;99028.00;;;15.44;48.55
9059;BME280;4564;42.034;25.834;2024-03-25T10:57:35;99034.22;;;15.40;48.75
9059;BME280;4564;42.034;25.834;2024-03-25T11:00:02;99044.44;;;15.11;50.52
9059;BME280;4564;42.034;25.834;2024-03-25T11:02:29;99036.38;;;14.88;50.55
9059;BME280;4564;42.034;25.834;2024-03-25T11:04:55;99030.00;;;14.54;51.93
9059;BME280;4564;42.034;25.834;2024-03-25T11:07:26;99046.66;;;14.69;51.90
9059;BME280;4564;42.034;25.834;2024-03-25T11:09:52;99042.91;;;14.58;49.40
9059;BME280;4564;42.034;25.834;2024-03-25T11:12:31;99036.69;;;14.46;51.49
9059;BME280;4564;42.034;25.834;2024-03-25T11:15:00;99051.78;;;14.65;51.68
9059;BME280;4564;42.034;25.834;2024-03-25T11:17:26;99034.84;;;14.80;49.70
9059;BME280;4564;42.034;25.834;2024-03-25T11:19:51;99047.69;;;14.96;50.04
9059;BME280;4564;42.034;25.834;2024-03-25T11:22:23;99045.59;;;15.15;49.83
9059;BME280;4564;42.034;25.834;2024-03-25T11:24:49;99038.13;;;14.94;49.65
9059;BME280;4564;42.034;25.834;2024-03-25T11:27:15;99046.03;;;14.95;49.44
9059;BME280;4564;42.034;25.834;2024-03-25T11:29:46;99046.72;;;15.02;48.93
9059;BME280;4564;42.034;25.834;2024-03-25T11:32:13;99059.19;;;15.27;49.20
9059;BME280;4564;42.034;25.834;2024-03-25T11:34:49;99059.41;;;15.42;50.25
9059;BME280;4564;42.034;25.834;2024-03-25T11:37:14;99051.38;;;15.69;48.17
9059;BME280;4564;42.034;25.834;2024-03-25T11:39:40;99060.34;;;15.81;47.35
9059;BME280;4564;42.034;25.834;2024-03-25T11:42:07;99067.66;;;15.59;46.65
9059;BME280;4564;42.034;25.834;2024-03-25T11:44:35;99067.47;;;15.48;47.58
9059;BME280;4564;42.034;25.834;2024-03-25T11:47:00;99070.94;;;15.61;47.12
9059;BME280;4564;42.034;25.834;2024-03-25T11:49:27;99062.50;;;15.62;48.12
9059;BME280;4564;42.034;25.834;2024-03-25T11:51:53;99072.28;;;15.58;47.46
9059;BME280;4564;42.034;25.834;2024-03-25T11:54:18;99071.38;;;15.52;47.56
9059;BME280;4564;42.034;25.834;2024-03-25T11:56:44;99072.13;;;15.65;48.01
9059;BME280;4564;42.034;25.834;2024-03-25T11:59:10;99070.78;;;15.67;48.02
9059;BME280;4564;42.034;25.834;2024-03-25T12:01:35;99072.91;;;15.82;47.43
9059;BME280;4564;42.034;25.834;2024-03-25T12:04:09;99073.94;;;15.76;47.11
9059;BME280;4564;42.034;25.834;2024-03-25T12:06:36;99075.78;;;15.53;47.30
9059;BME280;4564;42.034;25.834;2024-03-25T12:09:02;99076.88;;;15.24;47.43
9059;BME280;4564;42.034;25.834;2024-03-25T12:11:48;99067.69;;;15.13;48.22
9059;BME280;4564;42.034;25.834;2024-03-25T12:14:13;99073.38;;;15.12;48.92
9059;BME280;4564;42.034;25.834;2024-03-25T12:16:39;99072.31;;;15.13;49.36
9059;BME280;4564;42.034;25.834;2024-03-25T12:19:05;99075.75;;;15.37;49.78
9059;BME280;4564;42.034;25.834;2024-03-25T12:21:31;99078.66;;;15.64;48.58
9059;BME280;4564;42.034;25.834;2024-03-25T12:23:59;99072.75;;;15.72;47.06
9059;BME280;4564;42.034;25.834;2024-03-25T12:26:24;99080.06;;;15.66;46.58
9059;BME280;4564;42.034;25.834;2024-03-25T12:28:50;99085.72;;;15.60;47.09
9059;BME280;4564;42.034;25.834;2024-03-25T12:31:16;99091.97;;;15.27;48.29
9059;BME280;4564;42.034;25.834;2024-03-25T12:33:41;99098.19;;;15.22;48.59
9059;BME280;4564;42.034;25.834;2024-03-25T12:36:07;99100.25;;;15.15;48.09
9059;BME280;4564;42.034;25.834;2024-03-25T12:38:33;99103.63;;;15.05;48.02
9059;BME280;4564;42.034;25.834;2024-03-25T12:41:04;99100.03;;;14.88;48.06
9059;BME280;4564;42.034;25.834;2024-03-25T12:43:31;99098.69;;;14.91;48.86
9059;BME280;4564;42.034;25.834;2024-03-25T12:45:57;99098.50;;;14.81;48.65
9059;BME280;4564;42.034;25.834;2024-03-25T12:48:23;99103.91;;;14.64;47.69
9059;BME280;4564;42.034;25.834;2024-03-25T12:50:48;99104.84;;;14.41;48.08
9059;BME280;4564;42.034;25.834;2024-03-25T12:53:16;99117.03;;;14.27;48.71
9059;BME280;4564;42.034;25.834;2024-03-25T12:55:42;99118.38;;;14.13;48.89
9059;BME280;4564;42.034;25.834;2024-03-25T12:58:09;99133.44;;;13.92;50.87
9059;BME280;4564;42.034;25.834;2024-03-25T13:00:35;99134.63;;;13.84;52.56
9059;BME280;4564;42.034;25.834;2024-03-25T13:03:00;99148.50;;;13.60;53.72
9059;BME280;4564;42.034;25.834;2024-03-25T13:05:26;99145.06;;;13.23;53.95